Time;durP1;ratioP1;P1;durP2;ratioP2;P2;SDS_P1;SDS_P2;PMS_P1;PMS_P2;Temp;Humidity;BMP_temperature;BMP_pressure;BME280_temperature;BME280_humidity;BME280_pressure;Samples;Min_cycle;Max_cycle;Signal;HPM_P1;HPM_P2
2021/12/19 00:00:06;;;;;;;11.37;5.67;;;1.20;99.90;;;0.84;84.83;98678.16;170382;29;1348;-75
2021/12/19 00:00:13;;;;;;;11.46;5.65;;;1.10;99.90;;;0.82;85.05;98675.63;169819;29;1496;-75
2021/12/19 00:00:20;;;;;;;13.43;5.87;;;1.10;99.90;;;0.84;85.07;98681.69;171131;28;1702;-75
2021/12/19 00:00:25;;;;;;;13.52;6.02;;;1.10;99.90;;;0.82;85.05;98680.09;172100;28;1414;-75
2021/12/19 00:00:32;;;;;;;15.85;6.25;;;1.20;99.90;;;0.78;85.36;98667.97;173139;28;1239;-75
2021/12/19 00:00:38;;;;;;;15.50;6.17;;;1.20;99.90;;;0.79;85.38;98669.66;171185;28;1687;-76
2021/12/19 00:00:45;;;;;;;15.48;6.15;;;1.10;99.90;;;0.88;85.34;98681.50;172653;28;891;-75
2021/12/19 00:00:51;;;;;;;16.23;5.97;;;1.20;99.90;;;0.73;85.31;98659.44;173322;28;1068;-75
2021/12/19 00:01:08;;;;;;;16.17;5.70;;;1.10;99.90;;;0.86;85.62;98692.19;172587;28;856;-75
2021/12/19 00:01:30;;;;;;;14.68;5.56;;;1.10;99.90;;;0.81;85.39;98678.38;172489;28;1796;-75
2021/12/19 00:02:19;;;;;;;13.93;5.77;;;1.20;99.90;;;0.72;85.10;98649.81;171878;28;1344;-75
2021/12/19 00:03:47;;;;;;;12.74;5.59;;;1.20;99.90;;;0.85;85.41;98683.38;171127;28;1506;-75
2021/12/19 00:04:14;;;;;;;13.02;5.89;;;1.20;99.90;;;0.81;85.21;98671.28;171181;28;1549;-75
2021/12/19 00:04:53;;;;;;;13.36;5.88;;;1.20;99.90;;;0.76;85.35;98660.13;172521;28;1253;-75
2021/12/19 00:08:43;;;;;;;14.00;6.38;;;1.10;99.90;;;0.79;85.22;98662.56;170572;29;1229;-75
2021/12/19 00:08:52;;;;;;;13.65;5.76;;;1.10;99.90;;;0.81;85.58;98663.34;169282;29;1428;-75
2021/12/19 00:08:59;;;;;;;11.93;5.50;;;1.10;99.90;;;0.85;85.13;98672.78;168584;29;900;-75
2021/12/19 00:09:05;;;;;;;12.50;5.47;;;1.10;99.90;;;0.80;85.09;98674.03;169208;29;1289;-75
2021/12/19 00:09:12;;;;;;;11.45;5.22;;;1.10;99.90;;;0.80;85.13;98664.28;169894;29;864;-75
2021/12/19 00:09:18;;;;;;;12.20;5.56;;;1.10;99.90;;;0.87;84.89;98674.50;170540;28;1050;-75
2021/12/19 00:09:24;;;;;;;13.87;6.20;;;1.10;99.90;;;0.85;85.02;98679.88;170468;28;1203;-75
2021/12/19 00:09:30;;;;;;;14.57;6.13;;;1.10;99.90;;;0.86;84.88;98673.63;170507;28;1472;-75
2021/12/19 00:09:36;;;;;;;13.70;6.18;;;1.10;99.90;;;0.75;85.29;98658.41;170548;29;888;-75
2021/12/19 00:09:42;;;;;;;15.10;6.30;;;1.10;99.90;;;0.80;85.39;98672.22;171709;28;1168;-75
2021/12/19 00:09:48;;;;;;;15.47;6.03;;;1.10;99.90;;;0.80;85.15;98663.41;171919;28;927;-75
2021/12/19 00:09:54;;;;;;;15.60;5.82;;;1.10;99.90;;;0.79;85.15;98673.16;171925;28;955;-74
2021/12/19 00:10:00;;;;;;;16.22;6.08;;;1.10;99.90;;;0.68;84.87;98645.63;171960;28;997;-75
2021/12/19 00:10:07;;;;;;;16.90;6.07;;;1.10;99.90;;;0.77;85.32;98663.63;171861;28;1204;-75
2021/12/19 00:10:13;;;;;;;17.10;6.03;;;1.10;99.90;;;0.73;85.24;98655.00;172503;28;1409;-76
2021/12/19 00:10:19;;;;;;;15.94;5.86;;;1.10;99.90;;;0.84;85.13;98678.16;171834;28;1313;-76
2021/12/19 00:10:26;;;;;;;16.40;5.77;;;1.10;99.90;;;0.76;85.01;98665.44;171120;28;1227;-75
2021/12/19 00:10:32;;;;;;;16.74;5.80;;;1.10;99.90;;;0.79;85.16;98664.34;171877;28;959;-75
2021/12/19 00:10:38;;;;;;;16.33;5.73;;;1.10;99.90;;;0.73;85.08;98660.31;172482;28;1447;-75
2021/12/19 00:10:44;;;;;;;16.03;6.00;;;1.10;99.90;;;0.77;85.21;98664.47;171280;28;891;-76
2021/12/19 00:10:50;;;;;;;15.85;6.05;;;1.10;99.90;;;0.72;84.97;98658.63;172503;28;1251;-75
2021/12/19 00:10:57;;;;;;;15.25;5.93;;;1.10;99.90;;;0.75;84.79;98665.50;171160;28;1400;-75
2021/12/19 00:11:04;;;;;;;13.27;5.70;;;1.10;99.90;;;0.74;84.91;98669.97;170629;29;903;-75
2021/12/19 00:11:10;;;;;;;12.67;5.77;;;1.10;99.90;;;0.74;84.93;98661.16;171996;28;967;-75
2021/12/19 00:11:26;;;;;;;13.20;5.55;;;1.10;99.90;;;0.71;85.18;98659.56;171973;28;1010;-75
2021/12/19 00:11:33;;;;;;;14.69;5.40;;;1.10;99.90;;;0.72;85.47;98669.22;171911;28;1218;-76
2021/12/19 00:11:39;;;;;;;14.43;5.20;;;1.10;99.90;;;0.73;85.08;98659.44;170515;28;1574;-75
2021/12/19 00:11:45;;;;;;;14.30;5.35;;;1.10;99.90;;;0.75;85.56;98666.38;171174;28;1007;-74
2021/12/19 00:11:51;;;;;;;12.60;5.43;;;1.10;99.90;;;0.63;85.50;98645.06;172035;28;912;-75
2021/12/19 00:11:59;;;;;;;11.82;5.53;;;1.10;99.90;;;0.76;85.32;98667.22;172696;28;1045;-75
2021/12/19 00:12:05;;;;;;;12.20;5.93;;;1.10;99.90;;;0.80;85.61;98671.38;171920;28;1078;-75
2021/12/19 00:12:11;;;;;;;14.88;6.47;;;1.10;99.90;;;0.73;85.10;98655.00;172346;28;1515;-75
2021/12/19 00:12:17;;;;;;;15.50;6.50;;;1.10;99.90;;;0.77;85.49;98668.94;172394;28;2062;-75
2021/12/19 00:12:23;;;;;;;14.80;6.43;;;1.10;99.90;;;0.74;85.20;98658.50;171842;28;1489;-75
2021/12/19 00:12:29;;;;;;;14.32;6.28;;;1.10;99.90;;;0.75;85.49;98658.41;171900;28;1042;-75
2021/12/19 00:12:35;;;;;;;14.32;5.95;;;1.10;99.90;;;0.75;85.41;98662.88;172415;28;1316;-75
2021/12/19 00:12:41;;;;;;;11.50;5.40;;;1.10;99.90;;;0.72;85.16;98657.78;173258;28;808;-74
2021/12/19 00:12:47;;;;;;;11.32;5.30;;;1.10;99.90;;;0.66;85.38;98645.75;171795;28;1589;-75
2021/12/19 00:12:56;;;;;;;12.05;5.30;;;1.10;99.90;;;0.78;85.70;98670.59;171906;28;965;-75
2021/12/19 00:13:02;;;;;;;11.67;5.41;;;1.10;99.90;;;0.74;85.56;98658.50;171174;28;1061;-75
2021/12/19 00:13:09;;;;;;;12.73;5.70;;;1.10;99.90;;;0.78;85.17;98671.47;171916;28;966;-75
2021/12/19 00:13:14;;;;;;;13.62;5.84;;;1.10;99.90;;;0.73;85.68;98654.16;172520;28;1500;-75
2021/12/19 00:13:24;;;;;;;13.50;5.80;;;1.10;99.90;;;0.76;85.73;98661.91;171233;28;935;-76
2021/12/19 00:13:30;;;;;;;14.09;5.96;;;1.10;99.90;;;0.72;85.46;98655.97;171240;28;1140;-75
2021/12/19 00:13:36;;;;;;;14.27;6.15;;;1.10;99.90;;;0.76;85.29;98668.06;173332;28;982;-75
2021/12/19 00:13:42;;;;;;;13.20;6.17;;;1.10;99.90;;;0.62;85.52;98641.56;174588;28;1312;-75
2021/12/19 00:13:50;;;;;;;12.38;6.00;;;1.10;99.90;;;0.78;85.97;98673.25;173192;28;939;-75
2021/12/19 00:13:57;;;;;;;12.18;6.13;;;1.10;99.90;;;0.73;85.20;98652.34;171066;28;1515;-75
2021/12/19 00:14:04;;;;;;;11.70;5.80;;;1.10;99.90;;;0.73;85.21;98656.78;171262;28;1379;-75
2021/12/19 00:14:10;;;;;;;12.02;5.73;;;1.10;99.90;;;0.77;85.30;98666.28;171536;28;1813;-75
2021/12/19 00:14:18;;;;;;;12.27;5.60;;;1.10;99.90;;;0.80;85.16;98669.56;170447;29;1251;-75
2021/12/19 00:14:24;;;;;;;13.20;5.53;;;1.10;99.90;;;0.76;85.17;98664.56;171166;28;1308;-75
2021/12/19 00:14:30;;;;;;;14.25;5.85;;;1.10;99.90;;;0.70;85.50;98657.00;171238;28;1027;-75
2021/12/19 00:14:36;;;;;;;14.82;5.93;;;1.10;99.90;;;0.70;85.13;98651.69;171937;28;923;-75
2021/12/19 00:14:42;;;;;;;14.13;5.77;;;1.10;99.90;;;0.64;85.44;98639.69;173529;28;1572;-75
2021/12/19 00:14:49;;;;;;;14.00;5.93;;;1.10;99.90;;;0.73;85.42;98660.31;172538;28;883;-75
2021/12/19 00:14:55;;;;;;;13.22;5.72;;;1.10;99.90;;;0.77;85.31;98669.78;171202;28;943;-75
2021/12/19 00:15:01;;;;;;;12.77;5.57;;;1.10;99.90;;;0.77;84.77;98668.94;171817;28;1026;-75
2021/12/19 00:15:08;;;;;;;12.00;5.55;;;1.10;99.90;;;0.73;85.26;98660.31;172395;28;1462;-75
2021/12/19 00:15:15;;;;;;;12.68;5.68;;;1.10;99.90;;;0.78;84.65;98660.00;172520;28;1436;-75
2021/12/19 00:15:21;;;;;;;12.92;5.66;;;1.10;99.90;;;0.79;85.31;98667.88;171798;28;1506;-75
2021/12/19 00:15:27;;;;;;;12.17;5.67;;;1.10;99.90;;;0.75;85.32;98653.13;172627;28;903;-75
2021/12/19 00:15:33;;;;;;;12.93;5.65;;;1.10;99.90;;;0.73;85.18;98649.69;172469;28;1276;-75
2021/12/19 00:15:39;;;;;;;14.00;5.63;;;1.10;99.90;;;0.76;85.20;98662.78;171063;28;1321;-75
2021/12/19 00:15:45;;;;;;;14.70;5.78;;;1.10;99.90;;;0.77;84.60;98658.34;173271;28;926;-75
2021/12/19 00:15:52;;;;;;;14.82;5.70;;;1.10;99.90;;;0.74;85.01;98659.34;173200;28;903;-75
2021/12/19 00:15:58;;;;;;;14.46;5.70;;;1.10;99.90;;;0.69;84.83;98655.28;173483;28;1446;-75
2021/12/19 00:16:04;;;;;;;12.95;5.65;;;1.10;99.90;;;0.80;85.13;98677.53;172484;28;1184;-74
2021/12/19 00:16:11;;;;;;;11.07;5.37;;;1.10;99.90;;;0.62;84.84;98644.22;172523;28;1402;-75
2021/12/19 00:16:18;;;;;;;11.90;5.67;;;1.10;99.90;;;0.76;84.79;98664.56;172504;28;1416;-75
2021/12/19 00:16:26;;;;;;;12.45;5.80;;;1.10;99.90;;;0.72;84.64;98657.78;171136;28;1570;-75
2021/12/19 00:16:33;;;;;;;13.17;5.73;;;1.10;99.90;;;0.55;84.64;98624.38;170524;29;1553;-75
2021/12/19 00:16:39;;;;;;;13.77;5.63;;;1.10;99.90;;;0.61;84.66;98636.41;171239;28;963;-75
2021/12/19 00:16:45;;;;;;;12.85;5.38;;;1.10;99.90;;;0.71;84.62;98650.75;171982;28;864;-75
2021/12/19 00:16:53;;;;;;;12.45;5.47;;;1.10;99.90;;;0.71;84.65;98656.91;171196;28;942;-75
2021/12/19 00:17:00;;;;;;;11.71;5.36;;;1.10;99.90;;;0.74;84.85;98666.44;172548;28;1169;-75
2021/12/19 00:17:06;;;;;;;10.83;5.13;;;1.10;99.90;;;0.77;84.44;98667.13;172612;28;919;-75
2021/12/19 00:17:11;;;;;;;11.82;5.60;;;1.10;99.90;;;0.76;84.98;98670.72;171262;28;860;-75
2021/12/19 00:17:17;;;;;;;13.48;5.57;;;1.10;99.90;;;0.70;85.07;98660.50;172262;28;1490;-75
2021/12/19 00:17:23;;;;;;;14.30;5.68;;;1.10;99.90;;;0.72;85.23;98663.94;171097;28;1215;-75
2021/12/19 00:17:29;;;;;;;15.40;5.97;;;1.10;99.90;;;0.67;84.65;98655.41;171186;28;983;-75
2021/12/19 00:17:35;;;;;;;15.77;6.13;;;1.10;99.90;;;0.68;84.78;98658.88;170612;29;1058;-75
2021/12/19 00:17:41;;;;;;;16.13;6.10;;;1.10;99.90;;;0.62;85.20;98646.88;172633;28;938;-75
2021/12/19 00:17:47;;;;;;;14.90;6.07;;;1.00;99.90;;;0.67;85.41;98658.06;171179;28;1421;-75
2021/12/19 00:17:53;;;;;;;15.18;6.00;;;1.00;99.90;;;0.75;84.89;98670.81;172740;28;1415;-75
2021/12/19 00:17:59;;;;;;;14.77;5.97;;;1.10;99.90;;;0.75;85.16;98666.38;172530;28;848;-75
2021/12/19 00:18:05;;;;;;;15.43;6.07;;;1.00;99.90;;;0.45;85.03;98609.16;172509;28;1196;-75
2021/12/19 00:18:11;;;;;;;14.75;6.05;;;1.00;99.90;;;0.69;85.14;98658.81;170865;28;1549;-75
2021/12/19 00:18:17;;;;;;;13.43;6.03;;;1.00;99.90;;;0.68;85.01;98656.25;171798;28;1414;-75
2021/12/19 00:18:23;;;;;;;13.57;6.20;;;1.00;99.90;;;0.70;85.26;98655.22;173221;28;1404;-75
2021/12/19 00:18:29;;;;;;;13.65;6.28;;;1.00;99.90;;;0.74;85.33;98667.31;171879;28;1077;-75
2021/12/19 00:18:35;;;;;;;12.80;6.25;;;1.00;99.90;;;0.68;85.40;98654.44;170502;28;1222;-75
2021/12/19 00:18:43;;;;;;;12.93;6.20;;;1.00;99.90;;;0.74;85.41;98666.44;172537;28;1491;-75
2021/12/19 00:18:50;;;;;;;13.03;5.77;;;1.00;99.90;;;0.59;85.39;98641.78;172496;28;1303;-75
2021/12/19 00:18:57;;;;;;;12.57;5.73;;;1.10;99.90;;;0.70;85.07;98660.50;171857;28;834;-75
2021/12/19 00:19:03;;;;;;;13.10;5.60;;;1.00;99.90;;;0.64;85.24;98654.75;172477;28;1431;-75
2021/12/19 00:19:09;;;;;;;12.87;5.43;;;1.00;99.90;;;0.68;85.16;98659.75;171224;28;1019;-75
2021/12/19 00:19:15;;;;;;;12.80;5.70;;;1.00;99.90;;;0.72;85.06;98658.63;172421;28;1184;-74
2021/12/19 00:19:21;;;;;;;12.57;5.50;;;1.00;99.90;;;0.74;85.48;98664.66;171836;28;1321;-75
2021/12/19 00:19:27;;;;;;;12.82;5.38;;;1.00;99.90;;;0.69;85.37;98650.00;172465;28;1406;-75
2021/12/19 00:19:33;;;;;;;12.56;5.18;;;1.10;99.90;;;0.72;85.14;98658.63;171106;28;1366;-75
2021/12/19 00:19:39;;;;;;;14.05;5.45;;;1.00;99.90;;;0.72;85.07;98663.06;171250;28;939;-75
2021/12/19 00:19:45;;;;;;;14.53;5.30;;;1.00;99.90;;;0.68;85.07;98651.78;172534;28;955;-75
2021/12/19 00:19:51;;;;;;;14.85;5.75;;;1.00;99.90;;;0.72;85.11;98655.97;172492;28;1222;-75
2021/12/19 00:19:57;;;;;;;16.90;6.03;;;1.00;99.90;;;0.72;85.40;98655.97;169847;29;1066;-75
2021/12/19 00:20:04;;;;;;;17.40;6.50;;;1.10;99.90;;;0.68;85.54;98653.59;170522;29;923;-76
2021/12/19 00:20:11;;;;;;;17.22;6.44;;;1.00;99.90;;;0.45;85.47;98612.66;171087;28;1001;-75
2021/12/19 00:20:18;;;;;;;18.00;6.63;;;1.00;99.90;;;0.70;84.90;98659.66;172514;28;1314;-75
2021/12/19 00:20:24;;;;;;;17.16;6.46;;;1.00;99.90;;;0.73;85.46;98660.31;172593;28;883;-75
2021/12/19 00:20:30;;;;;;;16.05;6.13;;;1.00;99.90;;;0.74;85.43;98662.00;173133;28;1282;-75
2021/12/19 00:20:36;;;;;;;15.50;6.00;;;1.00;99.90;;;0.70;85.11;98654.34;174044;28;975;-75
2021/12/19 00:20:42;;;;;;;16.13;6.10;;;1.00;99.90;;;0.69;85.30;98652.66;173199;28;1526;-75
2021/12/19 00:20:49;;;;;;;15.43;5.80;;;1.00;99.90;;;0.72;85.00;98663.94;172372;28;1720;-75
2021/12/19 00:20:54;;;;;;;15.02;5.78;;;1.00;99.90;;;0.61;85.26;98650.50;171743;28;1348;-75
2021/12/19 00:21:00;;;;;;;14.40;5.97;;;1.00;99.90;;;0.57;85.45;98642.84;173233;28;915;-75
2021/12/19 00:21:06;;;;;;;14.48;5.97;;;1.00;99.90;;;0.72;85.49;98677.19;171161;28;1028;-75
2021/12/19 00:21:15;;;;;;;12.82;5.78;;;1.00;99.90;;;0.68;85.33;98669.50;171628;28;1553;-75
2021/12/19 00:21:25;;;;;;;13.37;5.97;;;1.00;99.90;;;0.65;85.33;98662.59;171822;28;1331;-75
2021/12/19 00:21:31;;;;;;;13.20;5.82;;;1.00;99.90;;;0.61;85.30;98661.09;172480;28;2761;-75
2021/12/19 00:21:40;;;;;;;12.47;5.60;;;1.00;99.90;;;0.60;85.15;98647.94;171823;28;1423;-75
2021/12/19 00:21:47;;;;;;;13.37;5.80;;;1.00;99.90;;;0.62;85.33;98660.13;172615;28;997;-76
2021/12/19 00:21:53;;;;;;;13.60;5.57;;;1.00;99.90;;;0.69;85.08;98661.44;171267;28;942;-75
2021/12/19 00:21:59;;;;;;;15.43;5.75;;;1.00;99.90;;;0.62;85.27;98654.81;171947;28;935;-76
2021/12/19 00:22:05;;;;;;;15.33;5.67;;;1.00;99.90;;;0.70;85.14;98667.59;171848;28;1229;-75
2021/12/19 00:22:11;;;;;;;14.77;5.47;;;1.00;99.90;;;0.69;85.06;98669.41;171079;28;1192;-75
2021/12/19 00:22:17;;;;;;;13.48;5.22;;;1.00;99.90;;;0.64;85.44;98657.38;170973;28;1522;-75
2021/12/19 00:22:23;;;;;;;14.05;5.45;;;1.00;99.90;;;0.57;84.89;98640.19;171821;28;1450;-74
2021/12/19 00:22:29;;;;;;;13.65;5.28;;;1.00;99.90;;;0.63;85.07;98651.22;172487;28;1189;-75
2021/12/19 00:22:35;;;;;;;13.52;5.30;;;1.00;99.90;;;0.51;84.92;98632.63;172437;28;1906;-75
2021/12/19 00:22:41;;;;;;;16.10;5.80;;;1.00;99.90;;;0.68;85.25;98662.38;172593;28;887;-76
2021/12/19 00:22:46;;;;;;;17.50;6.10;;;1.00;99.90;;;0.66;85.16;98661.66;173256;28;1043;-75
2021/12/19 00:22:52;;;;;;;17.00;6.20;;;1.00;99.90;;;0.65;85.45;98657.28;172311;28;1344;-75
2021/12/19 00:22:58;;;;;;;16.70;6.32;;;1.00;99.90;;;0.68;85.17;98662.38;173281;28;820;-75
2021/12/19 00:23:04;;;;;;;16.92;6.30;;;1.00;99.90;;;0.68;85.25;98667.69;173261;28;843;-75
2021/12/19 00:23:11;;;;;;;15.20;6.13;;;1.00;99.90;;;0.71;85.48;98664.00;172651;28;1109;-75
2021/12/19 00:23:18;;;;;;;14.70;6.30;;;1.00;99.90;;;0.63;85.14;98651.22;171708;28;1537;-75
2021/12/19 00:23:25;;;;;;;13.90;6.10;;;1.00;99.90;;;0.54;85.46;98633.28;171758;28;1326;-75
2021/12/19 00:23:31;;;;;;;13.60;6.23;;;1.00;99.90;;;0.64;85.44;98655.59;171966;28;940;-75
2021/12/19 00:23:39;;;;;;;14.05;6.15;;;1.00;99.90;;;0.61;85.04;98647.84;171740;28;1292;-75
2021/12/19 00:23:48;;;;;;;13.30;6.02;;;1.00;99.90;;;0.61;85.08;98647.00;170403;29;1722;-75
2021/12/19 00:23:56;;;;;;;13.88;6.14;;;1.00;99.90;;;0.67;85.25;98660.72;171813;28;1526;-76
2021/12/19 00:24:02;;;;;;;13.50;6.00;;;1.00;99.90;;;0.64;85.20;98647.66;172414;28;1607;-75
2021/12/19 00:24:08;;;;;;;13.26;5.96;;;1.00;99.90;;;0.63;85.48;98648.59;171111;28;1337;-75
2021/12/19 00:24:15;;;;;;;14.27;6.07;;;1.00;99.90;;;0.65;85.08;98651.16;171545;28;1205;-75
2021/12/19 00:24:21;;;;;;;14.13;5.77;;;1.00;99.90;;;0.70;85.24;98657.00;171844;28;1343;-76
2021/12/19 00:24:27;;;;;;;13.63;5.83;;;1.00;99.90;;;0.63;85.29;98645.06;171875;28;1398;-75
2021/12/19 00:24:33;;;;;;;13.40;5.50;;;1.00;99.90;;;0.67;85.24;98652.75;172495;28;1374;-74
2021/12/19 00:24:39;;;;;;;12.40;5.27;;;1.00;99.90;;;0.67;85.18;98651.91;173174;28;1497;-75
2021/12/19 00:24:45;;;;;;;11.90;5.07;;;1.00;99.90;;;0.61;85.07;98641.69;172541;28;1164;-75
2021/12/19 00:24:51;;;;;;;11.75;5.15;;;1.00;99.90;;;0.67;85.49;98655.41;172468;28;1158;-75
2021/12/19 00:24:57;;;;;;;12.40;5.32;;;1.00;99.90;;;0.63;85.60;98645.94;172451;28;1249;-75
2021/12/19 00:25:05;;;;;;;12.52;5.60;;;1.00;99.90;;;0.67;85.19;98647.47;171273;28;808;-75
2021/12/19 00:25:12;;;;;;;14.29;5.87;;;1.00;99.90;;;0.66;85.25;98653.72;170678;28;2048;-75
2021/12/19 00:25:18;;;;;;;14.47;6.20;;;1.00;99.90;;;0.62;84.92;98652.19;171768;28;1510;-75
2021/12/19 00:25:24;;;;;;;14.00;5.93;;;1.00;99.90;;;0.60;85.50;98643.50;173254;28;1234;-75
2021/12/19 00:25:30;;;;;;;15.07;5.90;;;1.00;99.90;;;0.65;85.42;98648.50;173910;28;918;-75
2021/12/19 00:25:35;;;;;;;14.50;6.05;;;1.00;99.90;;;0.68;85.42;98653.59;171909;28;1076;-76
2021/12/19 00:25:42;;;;;;;13.30;5.80;;;1.00;99.90;;;0.71;85.37;98664.00;172532;28;863;-75
2021/12/19 00:25:48;;;;;;;13.13;5.50;;;1.00;99.90;;;0.70;84.90;98655.22;172377;28;1589;-75
2021/12/19 00:25:54;;;;;;;13.23;5.40;;;1.00;99.90;;;0.61;85.15;98642.56;171953;28;963;-75
2021/12/19 00:26:00;;;;;;;12.38;5.10;;;1.00;99.90;;;0.67;85.09;98659.88;170439;28;1406;-75
2021/12/19 00:26:06;;;;;;;11.80;5.00;;;1.00;99.90;;;0.61;84.95;98645.19;173165;28;1362;-76
2021/12/19 00:26:15;;;;;;;11.70;5.18;;;1.00;99.90;;;0.66;84.85;98656.34;172509;28;1398;-75
2021/12/19 00:26:22;;;;;;;10.76;5.19;;;1.00;99.90;;;0.66;84.81;98653.72;171765;28;1045;-76
2021/12/19 00:26:28;;;;;;;11.20;5.25;;;1.00;99.90;;;0.59;85.01;98641.78;173165;28;1428;-75
2021/12/19 00:26:34;;;;;;;12.05;5.45;;;1.00;99.90;;;0.68;85.11;98654.44;172602;28;986;-75
2021/12/19 00:26:40;;;;;;;14.17;5.70;;;1.00;99.90;;;0.61;84.88;98641.69;172627;28;1022;-75
2021/12/19 00:26:46;;;;;;;14.13;5.78;;;1.00;99.90;;;0.64;84.50;98655.59;172538;28;1365;-75
2021/12/19 00:26:52;;;;;;;15.50;6.08;;;1.00;99.90;;;0.61;84.83;98647.00;173056;28;1412;-75
2021/12/19 00:26:58;;;;;;;15.52;6.15;;;0.90;99.90;;;0.60;84.96;98648.78;171111;28;1383;-75
2021/12/19 00:27:04;;;;;;;14.70;6.03;;;0.90;99.90;;;0.61;85.12;98652.28;170488;28;1295;-75
2021/12/19 00:27:10;;;;;;;13.00;5.93;;;0.90;99.90;;;0.64;85.11;98652.94;171915;28;938;-75
2021/12/19 00:27:16;;;;;;;13.07;5.63;;;0.90;99.90;;;0.64;85.20;98652.09;171657;28;1811;-75
2021/12/19 00:27:22;;;;;;;12.80;5.45;;;0.90;99.90;;;0.51;85.03;98635.28;171297;28;1404;-75
2021/12/19 00:27:28;;;;;;;13.18;5.55;;;0.90;99.90;;;0.66;85.29;98658.16;171764;28;1399;-75
2021/12/19 00:27:34;;;;;;;14.05;5.70;;;0.90;99.90;;;0.52;85.24;98637.81;171817;28;1335;-75
2021/12/19 00:27:40;;;;;;;14.80;5.70;;;0.90;99.90;;;0.57;84.71;98648.97;171102;28;1339;-75
2021/12/19 00:27:46;;;;;;;14.82;5.75;;;0.90;99.90;;;0.58;84.97;98639.22;172575;28;927;-75
2021/12/19 00:27:52;;;;;;;13.47;5.60;;;0.90;99.90;;;0.60;84.70;98648.78;172974;28;1610;-75
2021/12/19 00:27:58;;;;;;;12.00;5.47;;;0.90;99.90;;;0.47;84.86;98628.47;171894;28;998;-75
2021/12/19 00:28:05;;;;;;;11.10;5.22;;;0.90;99.90;;;0.65;84.66;98659.09;172634;28;1003;-75
2021/12/19 00:28:11;;;;;;;10.02;5.00;;;0.90;99.90;;;0.63;85.04;98647.72;171249;28;879;-75
2021/12/19 00:28:17;;;;;;;9.32;4.93;;;0.90;99.90;;;0.55;84.94;98647.38;171782;28;1395;-75
2021/12/19 00:28:24;;;;;;;10.00;4.82;;;0.90;99.90;;;0.59;85.06;98647.09;171040;28;911;-75
2021/12/19 00:28:31;;;;;;;10.20;4.77;;;0.90;99.90;;;0.65;84.82;98656.44;171264;28;884;-75
2021/12/19 00:28:36;;;;;;;9.87;4.67;;;0.90;99.90;;;0.54;84.83;98637.72;171154;28;1256;-75
2021/12/19 00:28:45;;;;;;;10.60;4.55;;;1.00;99.90;;;0.56;85.29;98642.00;173239;28;871;-75
2021/12/19 00:28:51;;;;;;;12.57;4.76;;;0.90;99.90;;;0.57;85.41;98638.38;172406;28;1367;-75
2021/12/19 00:29:00;;;;;;;14.00;4.82;;;0.90;99.90;;;0.56;85.28;98642.00;172143;28;1349;-75
2021/12/19 00:29:07;;;;;;;14.77;5.21;;;0.90;99.90;;;0.52;85.29;98637.00;172433;28;1556;-75
2021/12/19 00:29:14;;;;;;;14.70;5.53;;;0.90;99.90;;;0.56;84.71;98644.63;171859;28;1364;-75
2021/12/19 00:29:20;;;;;;;13.90;5.40;;;0.90;99.90;;;0.49;84.90;98627.41;171624;28;1533;-75
2021/12/19 00:29:27;;;;;;;12.27;5.40;;;0.90;99.90;;;0.58;84.69;98649.81;171477;28;1881;-75
2021/12/19 00:29:33;;;;;;;12.43;5.30;;;0.90;99.90;;;0.54;84.85;98641.22;171894;28;891;-75
2021/12/19 00:29:39;;;;;;;10.77;4.88;;;0.90;99.90;;;0.51;84.72;98638.78;172496;28;887;-75
2021/12/19 00:29:44;;;;;;;11.32;4.78;;;0.90;99.90;;;0.54;85.28;98633.28;173159;28;1030;-75
2021/12/19 00:29:50;;;;;;;11.07;4.85;;;0.90;99.90;;;0.52;85.26;98635.16;173169;28;1369;-75
2021/12/19 00:29:56;;;;;;;11.80;4.83;;;0.90;99.90;;;0.47;85.06;98629.31;171237;28;1406;-75
2021/12/19 00:30:04;;;;;;;11.93;4.80;;;0.90;99.90;;;0.40;84.61;98626.22;173310;28;962;-75
2021/12/19 00:30:10;;;;;;;13.03;5.07;;;0.90;99.90;;;0.50;84.89;98642.38;173197;28;1194;-75
2021/12/19 00:30:16;;;;;;;12.55;4.97;;;0.90;99.90;;;0.46;85.54;98640.88;171808;28;1305;-75
2021/12/19 00:30:22;;;;;;;13.63;5.22;;;0.90;99.90;;;0.48;85.58;98641.59;171129;28;1177;-75
2021/12/19 00:30:28;;;;;;;14.40;5.45;;;0.90;99.90;;;0.49;85.51;98645.97;171760;28;1196;-75
2021/12/19 00:30:35;;;;;;;14.53;5.50;;;0.80;99.90;;;0.47;85.25;98637.25;171866;28;1219;-75
2021/12/19 00:30:41;;;;;;;14.40;5.43;;;0.80;99.90;;;0.39;85.33;98626.28;172625;28;939;-75
2021/12/19 00:30:47;;;;;;;14.38;5.40;;;0.80;99.90;;;0.48;85.73;98636.31;171756;28;1316;-75
2021/12/19 00:30:53;;;;;;;13.40;5.57;;;0.90;99.90;;;0.45;85.29;98636.50;171127;28;1295;-75
2021/12/19 00:31:00;;;;;;;12.23;5.22;;;0.80;99.90;;;0.42;85.66;98624.28;171096;28;1870;-75
2021/12/19 00:31:07;;;;;;;11.90;5.12;;;0.90;99.90;;;0.47;85.57;98636.41;171228;28;1032;-75
2021/12/19 00:31:13;;;;;;;11.45;5.18;;;0.80;99.90;;;0.43;85.86;98631.31;170478;29;1411;-76
2021/12/19 00:31:19;;;;;;;12.07;5.27;;;0.90;99.90;;;0.45;85.60;98633.00;170439;29;1515;-76
2021/12/19 00:31:25;;;;;;;12.65;5.35;;;0.80;99.90;;;0.44;85.69;98634.81;171690;28;1249;-75
2021/12/19 00:31:32;;;;;;;12.32;5.43;;;0.90;99.90;;;0.51;85.53;98648.53;172437;28;1336;-75
2021/12/19 00:31:39;;;;;;;13.43;5.55;;;0.80;99.90;;;0.46;85.64;98632.06;173113;28;1068;-75
2021/12/19 00:31:46;;;;;;;14.07;5.63;;;0.80;99.90;;;0.43;85.77;98628.66;173228;28;955;-75
2021/12/19 00:31:51;;;;;;;13.77;5.37;;;0.80;99.90;;;0.48;85.80;98641.59;172591;28;965;-75
2021/12/19 00:31:57;;;;;;;15.55;5.65;;;0.80;99.90;;;0.47;85.71;98637.25;170216;28;1740;-75
2021/12/19 00:32:04;;;;;;;16.60;5.50;;;0.80;99.90;;;0.45;86.03;98639.16;169921;29;809;-75
2021/12/19 00:32:10;;;;;;;15.53;5.53;;;0.80;99.90;;;0.47;86.17;98633.78;170420;29;1333;-75
2021/12/19 00:32:16;;;;;;;15.43;5.33;;;0.80;99.90;;;0.51;85.52;98646.72;171928;28;900;-75
2021/12/19 00:32:22;;;;;;;14.73;5.28;;;0.90;99.90;;;0.54;85.76;98645.66;170775;28;1464;-74
2021/12/19 00:32:28;;;;;;;13.60;5.00;;;0.80;99.90;;;0.43;85.56;98628.66;172562;28;995;-75
2021/12/19 00:32:34;;;;;;;12.18;4.93;;;0.80;99.90;;;0.50;85.88;98647.66;172611;28;1193;-75
2021/12/19 00:32:40;;;;;;;12.52;4.90;;;0.80;99.90;;;0.50;85.71;98642.38;172541;28;959;-75
2021/12/19 00:32:46;;;;;;;13.57;5.10;;;0.80;99.90;;;0.38;86.10;98617.50;173737;28;1555;-75
2021/12/19 00:32:52;;;;;;;13.77;5.00;;;0.80;99.90;;;0.46;86.03;98635.56;171168;28;1550;-75
2021/12/19 00:32:58;;;;;;;14.02;5.07;;;0.80;99.90;;;0.54;85.67;98649.16;173066;28;1302;-75
2021/12/19 00:33:04;;;;;;;13.95;5.15;;;0.80;99.90;;;0.41;85.88;98619.13;171235;28;1026;-75
2021/12/19 00:33:10;;;;;;;13.55;5.10;;;0.90;99.90;;;0.50;85.71;98638.88;172025;28;1359;-75
2021/12/19 00:33:16;;;;;;;12.73;5.23;;;0.80;99.90;;;0.47;85.84;98637.25;172501;28;1481;-75
2021/12/19 00:33:22;;;;;;;13.00;5.25;;;0.80;99.90;;;0.37;85.72;98622.88;173800;28;1322;-76
2021/12/19 00:33:28;;;;;;;12.70;5.23;;;0.80;99.90;;;0.47;85.64;98631.13;173849;28;1361;-75
2021/12/19 00:33:35;;;;;;;12.85;5.40;;;0.80;99.90;;;0.44;85.80;98624.22;172415;28;1305;-75
2021/12/19 00:33:43;;;;;;;11.97;5.47;;;0.80;99.90;;;0.57;86.09;98640.19;173903;28;1353;-75
2021/12/19 00:33:48;;;;;;;11.83;5.27;;;0.80;99.90;;;0.45;85.94;98623.28;173178;28;1452;-75
2021/12/19 00:33:54;;;;;;;11.98;5.57;;;0.80;99.90;;;0.55;85.58;98650.88;172547;28;1313;-75
2021/12/19 00:34:01;;;;;;;11.82;5.60;;;0.80;99.90;;;0.50;85.34;98639.72;171877;28;936;-75
2021/12/19 00:34:07;;;;;;;14.47;5.57;;;0.80;99.90;;;0.54;85.88;98643.88;173908;28;1389;-75
2021/12/19 00:34:15;;;;;;;14.93;5.60;;;0.80;99.90;;;0.43;85.98;98622.50;172485;28;878;-75
2021/12/19 00:34:21;;;;;;;14.82;5.73;;;0.80;99.90;;;0.45;85.50;98628.56;173161;28;1415;-75
2021/12/19 00:34:27;;;;;;;14.98;5.45;;;0.80;99.90;;;0.47;85.48;98631.94;173148;28;1595;-75
2021/12/19 00:34:33;;;;;;;13.60;5.25;;;0.80;99.90;;;0.48;85.47;98633.66;172561;28;1377;-75
2021/12/19 00:34:39;;;;;;;12.88;5.22;;;0.80;99.90;;;0.48;85.61;98633.66;170525;29;1039;-75
2021/12/19 00:34:45;;;;;;;13.02;5.28;;;0.80;99.90;;;0.45;85.50;98630.34;171217;28;950;-75
2021/12/19 00:34:52;;;;;;;11.85;5.20;;;0.80;99.90;;;0.34;85.66;98610.69;173135;28;1583;-76
2021/12/19 00:34:58;;;;;;;11.64;5.26;;;0.80;99.90;;;0.42;85.53;98620.78;172541;28;852;-75
2021/12/19 00:35:05;;;;;;;11.38;5.32;;;0.80;99.90;;;0.42;85.67;98628.75;172574;28;934;-76
2021/12/19 00:35:11;;;;;;;11.83;5.17;;;0.80;99.90;;;0.47;85.81;98639.06;171761;28;1306;-75